createdAt,value
2023-04-28T00:01:46.076Z,-1.10
2023-04-28T00:04:13.591Z,-1.20
2023-04-28T00:06:41.233Z,-1.20
2023-04-28T00:09:11.324Z,-1.30
2023-04-28T00:11:38.821Z,-1.30
2023-04-28T00:14:06.118Z,-1.40
2023-04-28T00:16:33.362Z,-1.30
2023-04-28T00:19:00.521Z,-1.40
2023-04-28T00:21:28.807Z,-1.30
2023-04-28T00:23:56.225Z,-1.30
2023-04-28T00:26:23.399Z,-1.30
2023-04-28T00:28:50.782Z,-1.40
2023-04-28T00:31:17.947Z,-1.40
2023-04-28T00:33:45.425Z,-1.40
2023-04-28T00:36:12.648Z,-1.30
2023-04-28T00:38:39.888Z,-1.20
2023-04-28T00:41:09.528Z,-1.00
2023-04-28T00:43:50.004Z,-0.90
2023-04-28T00:46:33.113Z,-0.80
2023-04-28T00:49:00.370Z,-0.60
2023-04-28T00:51:29.308Z,-0.50
2023-04-28T00:53:57.304Z,-0.50
2023-04-28T00:56:24.472Z,-0.30
2023-04-28T00:58:51.614Z,-0.20
2023-04-28T01:01:19.395Z,0.00
2023-04-28T01:03:47.360Z,0.00
2023-04-28T01:06:16.620Z,0.10
2023-04-28T01:08:44.139Z,0.30
2023-04-28T01:11:14.352Z,0.20
2023-04-28T01:13:41.632Z,0.20
2023-04-28T01:16:08.793Z,0.30
2023-04-28T01:18:36.031Z,0.40
2023-04-28T01:21:04.633Z,0.40
2023-04-28T01:23:31.916Z,0.50
2023-04-28T01:25:58.981Z,0.70
2023-04-28T01:28:26.403Z,0.70
2023-04-28T01:30:53.494Z,0.80
2023-04-28T01:33:20.694Z,0.80
2023-04-28T01:35:47.865Z,0.80
2023-04-28T01:38:14.956Z,0.80
2023-04-28T01:40:42.183Z,0.90
2023-04-28T01:43:09.236Z,1.00
2023-04-28T01:45:36.369Z,1.10
2023-04-28T01:48:03.534Z,1.10
2023-04-28T01:50:30.768Z,1.20
2023-04-28T01:52:57.975Z,1.20
2023-04-28T01:55:25.732Z,1.20
2023-04-28T01:57:52.867Z,1.30
2023-04-28T02:00:20.156Z,1.30
2023-04-28T02:02:47.298Z,1.40
2023-04-28T02:05:14.613Z,1.40
2023-04-28T02:07:41.746Z,1.50
2023-04-28T02:10:09.462Z,1.50
2023-04-28T02:12:36.584Z,1.50
2023-04-28T02:15:04.036Z,1.60
2023-04-28T02:17:31.465Z,1.60
2023-04-28T02:19:58.817Z,1.60
2023-04-28T02:22:25.970Z,1.60
2023-04-28T02:24:53.130Z,1.70
2023-04-28T02:27:20.962Z,1.70
2023-04-28T02:29:48.072Z,1.70
2023-04-28T02:32:15.167Z,1.60
2023-04-28T02:34:42.239Z,1.70
2023-04-28T02:37:09.472Z,1.70
2023-04-28T02:39:37.767Z,1.80
2023-04-28T02:42:05.545Z,1.80
2023-04-28T02:44:32.742Z,1.90
2023-04-28T02:47:00.748Z,2.00
2023-04-28T02:49:27.980Z,2.00
2023-04-28T02:51:55.218Z,2.00
2023-04-28T02:54:27.855Z,1.80
2023-04-28T02:56:58.695Z,1.90
2023-04-28T02:59:27.257Z,1.80
2023-04-28T03:01:54.327Z,1.80
2023-04-28T03:04:21.900Z,1.90
2023-04-28T03:06:49.344Z,1.90
2023-04-28T03:09:16.500Z,1.90
2023-04-28T03:11:43.652Z,2.00
2023-04-28T03:14:11.026Z,1.90
2023-04-28T03:16:38.798Z,1.90
2023-04-28T03:19:06.089Z,1.90
2023-04-28T03:21:33.151Z,2.00
2023-04-28T03:24:05.422Z,1.90
2023-04-28T03:26:33.135Z,1.90
2023-04-28T03:29:00.398Z,2.00
2023-04-28T03:31:27.524Z,2.00
2023-04-28T03:33:58.748Z,2.10
2023-04-28T03:36:25.971Z,2.20
2023-04-28T03:38:53.101Z,2.20
2023-04-28T03:41:20.555Z,2.10
2023-04-28T03:43:47.625Z,2.20
2023-04-28T03:46:17.089Z,2.30
2023-04-28T03:48:46.234Z,2.20
2023-04-28T03:51:13.484Z,2.40
2023-04-28T03:53:40.615Z,2.40
2023-04-28T03:56:07.948Z,2.50
2023-04-28T03:58:35.188Z,2.60
2023-04-28T04:01:02.476Z,2.70
2023-04-28T04:03:29.774Z,2.80
2023-04-28T04:05:57.616Z,2.80
2023-04-28T04:08:24.761Z,2.80
2023-04-28T04:10:52.805Z,2.80
2023-04-28T04:13:19.906Z,2.70
2023-04-28T04:15:47.037Z,2.60
2023-04-28T04:18:15.018Z,2.60
2023-04-28T04:20:42.304Z,2.50
2023-04-28T04:23:09.430Z,2.60
2023-04-28T04:25:36.653Z,2.90
2023-04-28T04:28:03.939Z,2.80
2023-04-28T04:30:31.493Z,2.80
2023-04-28T04:32:58.666Z,2.90
2023-04-28T04:35:25.833Z,2.90
2023-04-28T04:37:53.229Z,2.80
2023-04-28T04:40:20.424Z,2.70
2023-04-28T04:42:47.470Z,2.70
2023-04-28T04:45:14.636Z,2.60
2023-04-28T04:47:41.996Z,2.60
2023-04-28T04:50:09.649Z,2.70
2023-04-28T04:52:37.495Z,2.80
2023-04-28T04:55:05.721Z,2.80
2023-04-28T04:57:32.837Z,2.60
2023-04-28T05:00:00.065Z,2.50
2023-04-28T05:02:27.224Z,2.60
2023-04-28T05:05:01.788Z,2.80
2023-04-28T05:07:35.972Z,2.80
2023-04-28T05:10:03.442Z,2.80
2023-04-28T05:12:30.634Z,2.80
2023-04-28T05:14:57.716Z,2.90
2023-04-28T05:17:24.854Z,3.00
2023-04-28T05:19:52.000Z,2.90
2023-04-28T05:22:19.162Z,3.00
2023-04-28T05:24:46.245Z,3.00
2023-04-28T05:27:13.373Z,3.10
2023-04-28T05:29:40.674Z,3.20
2023-04-28T05:32:07.840Z,3.40
2023-04-28T05:34:34.989Z,3.70
2023-04-28T05:37:02.167Z,3.90
2023-04-28T05:39:29.419Z,4.10
2023-04-28T05:41:59.084Z,4.30
2023-04-28T05:44:26.608Z,4.40
2023-04-28T05:46:53.815Z,4.20
2023-04-28T05:49:21.140Z,4.30
2023-04-28T05:51:48.250Z,4.10
2023-04-28T05:54:15.598Z,4.10
2023-04-28T05:56:42.992Z,4.30
2023-04-28T05:59:10.232Z,4.40
2023-04-28T06:01:38.845Z,4.50
2023-04-28T06:04:06.308Z,4.70
2023-04-28T06:06:42.761Z,4.50
2023-04-28T06:09:09.962Z,4.50
2023-04-28T06:11:37.117Z,4.60
2023-04-28T06:14:04.315Z,4.50
2023-04-28T06:16:31.550Z,4.50
2023-04-28T06:18:58.963Z,4.70
2023-04-28T06:21:27.557Z,5.00
2023-04-28T06:23:54.784Z,5.00
2023-04-28T06:26:22.079Z,5.10
2023-04-28T06:28:49.262Z,5.00
2023-04-28T06:31:16.597Z,4.90
2023-04-28T06:33:43.781Z,4.90
2023-04-28T06:36:14.190Z,4.70
2023-04-28T06:38:43.300Z,4.80
2023-04-28T06:41:13.338Z,4.80
2023-04-28T06:43:40.590Z,5.00
2023-04-28T06:46:08.581Z,5.20
2023-04-28T06:48:35.794Z,5.30
2023-04-28T06:51:06.024Z,5.30
2023-04-28T06:53:33.884Z,5.30
2023-04-28T06:56:02.545Z,5.20
2023-04-28T06:58:29.721Z,5.10
2023-04-28T07:00:56.931Z,5.00
2023-04-28T07:03:24.209Z,4.80
2023-04-28T07:05:52.968Z,4.90
2023-04-28T07:08:21.722Z,5.20
2023-04-28T07:10:48.979Z,5.10
2023-04-28T07:13:16.599Z,5.10
2023-04-28T07:15:43.883Z,5.00
2023-04-28T07:18:13.317Z,5.30
2023-04-28T07:20:40.744Z,5.30
2023-04-28T07:23:08.228Z,5.30
2023-04-28T07:25:36.613Z,5.50
2023-04-28T07:28:07.839Z,5.30
2023-04-28T07:30:36.074Z,5.30
2023-04-28T07:33:20.516Z,5.00
2023-04-28T07:35:55.256Z,5.10
2023-04-28T07:38:22.802Z,5.30
2023-04-28T07:43:25.341Z,5.60
2023-04-28T07:45:53.522Z,5.70
2023-04-28T07:48:21.105Z,5.50
2023-04-28T07:50:48.701Z,5.60
2023-04-28T07:53:16.247Z,5.50
2023-04-28T07:55:44.963Z,5.70
2023-04-28T07:58:13.094Z,6.00
2023-04-28T08:00:41.236Z,5.70
2023-04-28T08:03:08.922Z,5.70
2023-04-28T08:05:36.581Z,5.70
2023-04-28T08:08:04.199Z,5.60
2023-04-28T08:10:31.586Z,5.50
2023-04-28T08:12:59.415Z,5.60
2023-04-28T08:15:27.957Z,5.60
2023-04-28T08:17:55.463Z,5.60
2023-04-28T08:20:24.660Z,5.80
2023-04-28T08:22:52.343Z,5.90
2023-04-28T08:25:19.774Z,6.00
2023-04-28T08:27:47.213Z,5.90
2023-04-28T08:30:14.622Z,6.00
2023-04-28T08:32:42.073Z,6.00
2023-04-28T08:35:09.886Z,5.80
2023-04-28T08:37:37.386Z,5.70
2023-04-28T08:40:10.171Z,5.70
2023-04-28T08:42:38.352Z,5.80
2023-04-28T08:45:06.556Z,5.90
2023-04-28T08:47:40.891Z,6.00
2023-04-28T08:50:09.195Z,6.20
2023-04-28T08:52:37.096Z,6.20
2023-04-28T08:55:09.992Z,6.10
2023-04-28T08:57:44.869Z,6.20
2023-04-28T09:00:13.313Z,6.00
2023-04-28T09:02:42.951Z,5.80
2023-04-28T09:05:12.232Z,5.90
2023-04-28T09:07:40.637Z,6.10
2023-04-28T09:10:21.457Z,6.00
2023-04-28T09:12:53.787Z,6.30
2023-04-28T09:15:38.007Z,6.40
2023-04-28T09:18:07.250Z,6.50
2023-04-28T09:20:36.548Z,6.20
2023-04-28T09:23:21.343Z,6.50
2023-04-28T09:26:00.773Z,6.90
2023-04-28T09:28:28.776Z,7.40
2023-04-28T09:30:56.505Z,7.90
2023-04-28T09:33:24.175Z,8.20
2023-04-28T09:35:52.221Z,8.20
2023-04-28T09:38:21.232Z,7.70
2023-04-28T09:40:54.822Z,8.00
2023-04-28T09:43:27.961Z,7.80
2023-04-28T09:45:56.911Z,8.40
2023-04-28T09:48:43.256Z,8.90
2023-04-28T09:51:12.893Z,9.80
2023-04-28T09:53:42.723Z,10.20
2023-04-28T09:56:13.494Z,10.10
2023-04-28T09:58:46.622Z,10.20
2023-04-28T10:01:15.469Z,10.40
2023-04-28T10:03:44.715Z,10.10
2023-04-28T10:06:12.234Z,10.70
2023-04-28T10:08:40.492Z,10.80
2023-04-28T10:11:08.673Z,10.90
2023-04-28T10:13:36.900Z,10.40
2023-04-28T10:16:05.272Z,9.80
2023-04-28T10:18:35.356Z,9.10
2023-04-28T10:21:04.804Z,9.40
2023-04-28T10:24:09.657Z,9.60
2023-04-28T10:26:55.985Z,9.00
2023-04-28T10:29:27.508Z,8.60
2023-04-28T10:32:18.894Z,8.50
2023-04-28T10:34:47.262Z,9.30
2023-04-28T10:37:15.437Z,9.60
2023-04-28T10:40:21.428Z,10.20
2023-04-28T10:42:53.697Z,10.70
2023-04-28T10:45:49.108Z,11.20
2023-04-28T10:48:17.348Z,10.20
2023-04-28T10:51:15.512Z,10.00
2023-04-28T10:53:46.827Z,9.80
2023-04-28T10:56:27.908Z,9.00
2023-04-28T10:58:57.228Z,8.50
2023-04-28T11:01:32.647Z,8.20
2023-04-28T11:04:14.025Z,8.40
2023-04-28T11:06:46.196Z,8.80
2023-04-28T11:09:17.797Z,8.80
2023-04-28T11:12:07.032Z,8.40
2023-04-28T11:14:35.304Z,8.60
2023-04-28T11:17:06.688Z,7.60
2023-04-28T11:19:36.715Z,7.80
2023-04-28T11:22:14.303Z,8.10
2023-04-28T11:24:41.921Z,7.70
2023-04-28T11:27:09.258Z,7.80
2023-04-28T11:29:41.155Z,6.70
2023-04-28T11:32:09.992Z,6.40
2023-04-28T11:34:38.114Z,6.60
2023-04-28T11:37:08.750Z,7.30
2023-04-28T11:39:36.272Z,7.90
2023-04-28T11:42:10.829Z,8.50
2023-04-28T11:44:38.412Z,8.80
2023-04-28T11:47:07.100Z,8.80
2023-04-28T11:49:47.238Z,8.60
2023-04-28T11:52:14.852Z,9.40
2023-04-28T11:54:43.776Z,9.80
2023-04-28T11:57:23.474Z,9.90
2023-04-28T11:59:51.472Z,9.10
2023-04-28T12:02:31.722Z,9.10
2023-04-28T12:05:07.916Z,8.40
2023-04-28T12:07:45.788Z,7.50
2023-04-28T12:10:19.053Z,6.60
2023-04-28T12:12:52.437Z,6.70
2023-04-28T12:15:22.769Z,6.00
2023-04-28T12:17:51.611Z,5.80
2023-04-28T12:20:38.863Z,6.20
2023-04-28T12:23:07.859Z,7.30
2023-04-28T12:25:44.706Z,7.70
2023-04-28T12:28:12.180Z,7.90
2023-04-28T12:30:42.283Z,8.20
2023-04-28T12:33:27.722Z,8.10
2023-04-28T12:35:56.847Z,8.60
2023-04-28T12:38:25.142Z,8.80
2023-04-28T12:40:55.667Z,8.40
2023-04-28T12:43:24.325Z,8.10
2023-04-28T12:45:53.629Z,8.30
2023-04-28T12:48:24.092Z,8.30
2023-04-28T12:50:52.471Z,8.40
2023-04-28T12:53:19.917Z,8.20
2023-04-28T12:55:48.059Z,8.20
2023-04-28T12:58:15.409Z,8.30
2023-04-28T13:00:43.235Z,8.10
2023-04-28T13:03:10.902Z,8.30
2023-04-28T13:05:41.367Z,8.50
2023-04-28T13:08:09.671Z,8.80
2023-04-28T13:10:37.367Z,8.80
2023-04-28T13:13:05.857Z,9.00
2023-04-28T13:15:33.362Z,9.20
2023-04-28T13:18:00.766Z,9.40
2023-04-28T13:20:28.131Z,9.20
2023-04-28T13:22:55.707Z,9.20
2023-04-28T13:25:23.431Z,8.70
2023-04-28T13:27:50.809Z,8.20
2023-04-28T13:30:18.204Z,7.40
2023-04-28T13:32:45.750Z,6.60
2023-04-28T13:35:13.138Z,6.20
2023-04-28T13:37:45.901Z,6.10
2023-04-28T13:40:13.729Z,5.80
2023-04-28T13:42:41.331Z,5.80
2023-04-28T13:45:09.035Z,5.80
2023-04-28T13:47:36.401Z,6.00
2023-04-28T13:50:03.907Z,6.20
2023-04-28T13:52:31.403Z,6.40
2023-04-28T13:54:59.026Z,6.70
2023-04-28T13:57:26.959Z,6.90
2023-04-28T13:59:54.536Z,7.40
2023-04-28T14:02:22.043Z,7.40
2023-04-28T14:04:50.990Z,7.60
2023-04-28T14:07:19.017Z,7.80
2023-04-28T14:09:46.978Z,8.00
2023-04-28T14:12:15.598Z,7.80
2023-04-28T14:14:43.810Z,7.70
2023-04-28T14:17:12.730Z,7.50
2023-04-28T14:19:40.217Z,7.60
2023-04-28T14:22:07.670Z,7.30
2023-04-28T14:24:37.105Z,7.40
2023-04-28T14:27:04.889Z,7.50
2023-04-28T14:29:32.293Z,7.50
2023-04-28T14:31:59.641Z,7.10
2023-04-28T14:34:27.110Z,7.30
2023-04-28T14:36:54.570Z,7.30
2023-04-28T14:39:22.190Z,7.20
2023-04-28T14:41:49.678Z,7.10
2023-04-28T14:44:17.398Z,7.00
2023-04-28T14:46:44.909Z,7.30
2023-04-28T14:49:12.490Z,7.30
2023-04-28T14:51:40.049Z,7.50
2023-04-28T14:54:09.379Z,7.70
2023-04-28T14:56:36.821Z,8.10
2023-04-28T14:59:04.612Z,8.30
2023-04-28T15:01:32.129Z,8.30
2023-04-28T15:03:59.688Z,8.30
2023-04-28T15:06:28.407Z,8.10
2023-04-28T15:08:55.832Z,8.00
2023-04-28T15:11:23.382Z,8.10
2023-04-28T15:13:51.013Z,8.10
2023-04-28T15:16:18.954Z,7.60
2023-04-28T15:18:46.405Z,6.90
2023-04-28T15:21:13.806Z,6.10
2023-04-28T15:23:41.244Z,5.30
2023-04-28T15:26:10.975Z,5.10
2023-04-28T15:28:38.484Z,5.30
2023-04-28T15:31:05.977Z,5.60
2023-04-28T15:33:33.887Z,5.90
2023-04-28T15:36:01.865Z,6.20
2023-04-28T15:38:31.505Z,6.20
2023-04-28T15:40:58.919Z,6.50
2023-04-28T15:43:26.403Z,6.50
2023-04-28T15:45:54.030Z,6.10
2023-04-28T15:48:22.516Z,5.90
2023-04-28T15:50:50.406Z,5.70
2023-04-28T15:53:18.729Z,5.80
2023-04-28T15:55:46.195Z,5.90
2023-04-28T15:58:14.049Z,5.80
2023-04-28T16:00:42.400Z,5.90
2023-04-28T16:03:09.953Z,6.00
2023-04-28T16:05:38.613Z,6.00
2023-04-28T16:08:06.220Z,5.90
2023-04-28T16:10:33.681Z,6.20
2023-04-28T16:13:05.498Z,6.60
2023-04-28T16:15:34.115Z,6.60
2023-04-28T16:18:02.383Z,6.90
2023-04-28T16:20:30.177Z,6.80
2023-04-28T16:22:58.228Z,7.10
2023-04-28T16:25:29.813Z,7.20
2023-04-28T16:27:57.246Z,7.20
2023-04-28T16:30:24.736Z,7.00
2023-04-28T16:32:53.372Z,6.90
2023-04-28T16:35:21.916Z,7.00
2023-04-28T16:37:49.262Z,6.90
2023-04-28T16:40:16.826Z,6.90
2023-04-28T16:42:45.400Z,6.90
2023-04-28T16:45:13.962Z,6.80
2023-04-28T16:47:43.605Z,6.60
2023-04-28T16:50:14.853Z,6.50
2023-04-28T16:52:42.449Z,6.50
2023-04-28T16:55:10.673Z,6.50
2023-04-28T16:57:38.214Z,6.20
2023-04-28T17:00:06.649Z,6.20
2023-04-28T17:02:34.897Z,6.20
2023-04-28T17:05:02.476Z,6.20
2023-04-28T17:07:29.834Z,6.30
2023-04-28T17:09:57.330Z,6.30
2023-04-28T17:12:24.660Z,6.30
2023-04-28T17:14:52.916Z,6.30
2023-04-28T17:17:20.391Z,6.20
2023-04-28T17:19:47.836Z,6.10
2023-04-28T17:22:15.451Z,6.00
2023-04-28T17:24:44.950Z,6.00
2023-04-28T17:27:12.607Z,5.90
2023-04-28T17:29:40.512Z,5.90
2023-04-28T17:32:07.886Z,5.80
2023-04-28T17:34:35.742Z,5.50
2023-04-28T17:37:04.582Z,5.40
2023-04-28T17:39:32.475Z,5.30
2023-04-28T17:42:02.761Z,5.10
2023-04-28T17:44:30.222Z,5.10
2023-04-28T17:46:58.022Z,5.00
2023-04-28T17:49:25.606Z,4.90
2023-04-28T17:51:53.003Z,4.80
2023-04-28T17:54:20.365Z,4.70
2023-04-28T17:56:47.694Z,4.70
2023-04-28T17:59:16.178Z,4.60
2023-04-28T18:01:43.768Z,4.50
2023-04-28T18:04:11.505Z,4.40
2023-04-28T18:06:41.519Z,4.10
2023-04-28T18:09:08.865Z,4.10
2023-04-28T18:11:37.192Z,3.90
2023-04-28T18:14:04.623Z,3.60
2023-04-28T18:16:32.242Z,3.50
2023-04-28T18:18:59.834Z,3.40
2023-04-28T18:21:31.156Z,3.20
2023-04-28T18:23:59.765Z,3.10
2023-04-28T18:26:27.366Z,3.10
2023-04-28T18:28:55.694Z,2.90
2023-04-28T18:31:24.359Z,2.70
2023-04-28T18:33:55.385Z,2.60
2023-04-28T18:36:23.880Z,2.50
2023-04-28T18:38:51.646Z,2.50
2023-04-28T18:41:19.326Z,2.50
2023-04-28T18:43:47.401Z,2.30
2023-04-28T18:46:17.040Z,2.30
2023-04-28T18:48:44.904Z,2.10
2023-04-28T18:51:12.174Z,2.10
2023-04-28T18:53:39.804Z,2.10
2023-04-28T18:56:07.191Z,1.90
2023-04-28T18:58:37.329Z,1.80
2023-04-28T19:01:05.103Z,1.70
2023-04-28T19:03:34.053Z,1.70
2023-04-28T19:06:01.674Z,1.60
2023-04-28T19:08:29.094Z,1.50
2023-04-28T19:10:58.762Z,1.50
2023-04-28T19:13:26.160Z,1.40
2023-04-28T19:15:56.704Z,1.10
2023-04-28T19:18:24.694Z,1.10
2023-04-28T19:21:03.019Z,1.10
2023-04-28T19:23:32.021Z,1.00
2023-04-28T19:26:00.199Z,1.00
2023-04-28T19:28:29.096Z,0.90
2023-04-28T19:30:58.381Z,0.80
2023-04-28T19:33:28.265Z,0.80
2023-04-28T19:35:57.309Z,0.70
2023-04-28T19:38:28.624Z,0.70
2023-04-28T19:41:02.315Z,0.80
2023-04-28T19:43:30.044Z,0.70
2023-04-28T19:45:58.667Z,0.60
2023-04-28T19:48:29.057Z,0.50
2023-04-28T19:50:56.991Z,0.40
2023-04-28T19:53:24.451Z,0.50
2023-04-28T19:55:51.800Z,0.40
2023-04-28T19:58:19.205Z,0.40
2023-04-28T20:00:48.329Z,0.30
2023-04-28T20:03:16.483Z,0.30
2023-04-28T20:05:43.854Z,0.30
2023-04-28T20:08:12.878Z,0.30
2023-04-28T20:10:40.623Z,0.30
2023-04-28T20:13:09.581Z,0.20
2023-04-28T20:15:37.122Z,0.20
2023-04-28T20:18:05.881Z,0.10
2023-04-28T20:20:33.445Z,0.10
2023-04-28T20:23:01.527Z,0.10
2023-04-28T20:25:29.189Z,0.10
2023-04-28T20:27:56.900Z,0.10
2023-04-28T20:30:24.591Z,0.10
2023-04-28T20:32:52.502Z,0.10
2023-04-28T20:35:21.068Z,0.10
2023-04-28T20:37:49.898Z,0.00
2023-04-28T20:40:17.864Z,0.10
2023-04-28T20:42:45.688Z,0.00
2023-04-28T20:45:13.617Z,-0.10
2023-04-28T20:47:41.363Z,-0.10
2023-04-28T20:50:12.037Z,-0.10
2023-04-28T20:52:39.456Z,-0.10
2023-04-28T20:55:09.087Z,-0.20
2023-04-28T20:57:37.122Z,-0.20
2023-04-28T21:00:08.126Z,-0.20
2023-04-28T21:02:36.524Z,-0.10
2023-04-28T21:05:04.195Z,-0.20
2023-04-28T21:07:32.394Z,-0.30
2023-04-28T21:10:00.264Z,-0.30
2023-04-28T21:12:28.635Z,-0.40
2023-04-28T21:14:56.020Z,-0.40
2023-04-28T21:17:24.283Z,-0.40
2023-04-28T21:19:52.164Z,-0.40
2023-04-28T21:22:19.793Z,-0.40
2023-04-28T21:24:48.287Z,-0.40
2023-04-28T21:27:16.090Z,-0.30
2023-04-28T21:29:43.656Z,-0.30
2023-04-28T21:32:12.473Z,-0.40
2023-04-28T21:34:40.049Z,-0.40
2023-04-28T21:37:07.527Z,-0.40
2023-04-28T21:39:34.875Z,-0.40
2023-04-28T21:42:05.383Z,-0.40
2023-04-28T21:44:32.786Z,-0.40
2023-04-28T21:47:00.452Z,-0.50
2023-04-28T21:49:28.955Z,-0.60
2023-04-28T21:51:56.275Z,-0.60
2023-04-28T21:54:23.684Z,-0.70
2023-04-28T21:56:51.017Z,-0.70
2023-04-28T21:59:18.527Z,-0.70
2023-04-28T22:01:46.168Z,-0.80
2023-04-28T22:04:13.997Z,-0.80
2023-04-28T22:06:41.949Z,-0.70
2023-04-28T22:09:09.485Z,-0.80
2023-04-28T22:11:37.085Z,-0.80
2023-04-28T22:14:05.119Z,-0.90
2023-04-28T22:16:32.759Z,-0.80
2023-04-28T22:19:00.279Z,-0.90
2023-04-28T22:21:28.616Z,-0.90
2023-04-28T22:23:56.417Z,-0.90
2023-04-28T22:26:26.014Z,-0.90
2023-04-28T22:28:53.437Z,-0.90
2023-04-28T22:31:20.831Z,-0.90
2023-04-28T22:33:48.267Z,-0.90
2023-04-28T22:36:15.668Z,-0.90
2023-04-28T22:38:43.251Z,-1.00
2023-04-28T22:41:10.642Z,-1.00
2023-04-28T22:43:38.624Z,-1.10
2023-04-28T22:46:06.357Z,-1.00
2023-04-28T22:48:34.066Z,-1.00
2023-04-28T22:51:01.445Z,-1.00
2023-04-28T22:53:29.235Z,-1.00
2023-04-28T22:55:58.383Z,-1.00
2023-04-28T22:58:25.742Z,-1.00
2023-04-28T23:00:53.156Z,-0.90
2023-04-28T23:03:21.731Z,-0.90
2023-04-28T23:05:49.163Z,-0.90
2023-04-28T23:08:16.786Z,-1.00
2023-04-28T23:10:44.075Z,-1.00
2023-04-28T23:13:11.458Z,-1.00
2023-04-28T23:15:38.833Z,-1.10
2023-04-28T23:18:06.402Z,-1.10
2023-04-28T23:20:34.661Z,-1.20
2023-04-28T23:23:02.212Z,-1.20
2023-04-28T23:25:29.671Z,-1.20
2023-04-28T23:27:57.013Z,-1.20
2023-04-28T23:30:24.492Z,-1.20
2023-04-28T23:32:51.868Z,-1.20
2023-04-28T23:35:19.257Z,-1.20
2023-04-28T23:37:46.993Z,-1.20
2023-04-28T23:40:14.628Z,-1.20
2023-04-28T23:42:42.083Z,-1.20
2023-04-28T23:45:10.130Z,-1.20
2023-04-28T23:47:37.610Z,-1.20
2023-04-28T23:50:05.395Z,-1.30
2023-04-28T23:52:32.913Z,-1.30
2023-04-28T23:55:00.715Z,-1.20
2023-04-28T23:57:28.154Z,-1.30
2023-04-28T23:59:55.575Z,-1.30
